Penfield, Illinois
Current Conditions -  °F | °C
As of 3:10 PM on Saturday 22 Nov 2014 (Local Time) from KTIP Reporting Station
Overcast Overcast  
Wind Chill: 55°   Ceiling: 2600
Heat Index: 55°   Visibility: 10mi
Dew Point: 47°   Wind: 13mph
Humidity: 74%   Direction: 210°SSW
Pressure: 29.94"   Gusts: 21mph
Location:  40.3°N, 87.95°W
Report Text: KTIP 222110Z AUTO 21011G18KT 10SM OVC026 13/08 A2994 RMK AO2 T01290084
Loading
Personal Weather Stations






























Interactive Weather Map New forecast layout! Learn more

10-Day Weather Forecast

Advertisements
Track Severe Weather on mobile